createdAt,value
2022-08-21T03:17:33.558Z,17.40
2022-08-21T03:20:02.237Z,17.40
2022-08-21T03:22:30.891Z,17.30
2022-08-21T03:24:59.755Z,17.30
2022-08-21T03:27:29.857Z,17.40
2022-08-21T03:29:58.886Z,17.20
2022-08-21T03:32:27.166Z,17.20
2022-08-21T03:34:56.689Z,17.20
2022-08-21T03:37:25.741Z,17.20
2022-08-21T03:39:53.962Z,17.20
2022-08-21T03:42:22.109Z,17.20
2022-08-21T03:44:50.184Z,17.30
2022-08-21T03:47:18.431Z,17.20
2022-08-21T03:49:46.590Z,17.10
2022-08-21T03:52:17.066Z,17.10
2022-08-21T03:54:45.283Z,17.20
2022-08-21T03:57:13.480Z,17.30
2022-08-21T03:59:41.664Z,17.20
2022-08-21T04:02:09.720Z,17.10
2022-08-21T04:04:38.387Z,17.20
2022-08-21T04:07:06.867Z,17.30
2022-08-21T04:09:36.799Z,17.30
2022-08-21T04:12:06.716Z,17.40
2022-08-21T04:14:34.950Z,17.40
2022-08-21T04:17:03.013Z,17.40
2022-08-21T04:19:31.112Z,17.50
2022-08-21T04:22:00.301Z,17.70
2022-08-21T04:24:29.989Z,17.50
2022-08-21T04:26:59.578Z,17.60
2022-08-21T04:29:27.710Z,17.70
2022-08-21T04:31:55.872Z,17.80
2022-08-21T04:34:23.950Z,17.80
2022-08-21T04:36:52.072Z,17.80
2022-08-21T04:39:20.155Z,17.90
2022-08-21T04:41:48.264Z,17.90
2022-08-21T04:44:17.772Z,17.90
2022-08-21T04:46:45.808Z,18.00
2022-08-21T04:49:13.859Z,18.20
2022-08-21T04:51:42.031Z,18.30
2022-08-21T04:54:15.601Z,18.50
2022-08-21T04:56:47.105Z,18.50
2022-08-21T04:59:22.311Z,18.60
2022-08-21T05:01:51.214Z,18.60
2022-08-21T05:04:23.895Z,18.70
2022-08-21T05:06:54.905Z,18.80
2022-08-21T05:09:25.656Z,18.90
2022-08-21T05:11:53.940Z,18.90
2022-08-21T05:14:23.470Z,19.10
2022-08-21T05:16:51.518Z,19.30
2022-08-21T05:19:19.628Z,19.20
2022-08-21T05:21:49.420Z,19.30
2022-08-21T05:24:18.848Z,19.50
2022-08-21T05:26:47.943Z,19.50
2022-08-21T05:29:18.327Z,19.60
2022-08-21T05:31:49.810Z,19.70
2022-08-21T05:34:22.988Z,19.80
2022-08-21T05:36:51.758Z,19.90
2022-08-21T05:39:19.990Z,20.10
2022-08-21T05:41:48.784Z,20.20
2022-08-21T05:44:16.856Z,20.30
2022-08-21T05:46:44.944Z,20.40
2022-08-21T05:49:14.752Z,20.50
2022-08-21T05:51:43.767Z,20.70
2022-08-21T05:54:12.201Z,21.00
2022-08-21T05:56:40.303Z,21.40
2022-08-21T05:59:08.962Z,21.90
2022-08-21T06:01:37.381Z,22.20
2022-08-21T06:04:05.864Z,22.40
2022-08-21T06:06:35.432Z,22.70
2022-08-21T06:09:04.264Z,23.10
2022-08-21T06:11:33.784Z,23.20
2022-08-21T06:14:02.412Z,23.60
2022-08-21T06:16:31.101Z,24.10
2022-08-21T06:19:02.610Z,24.20
2022-08-21T06:21:31.406Z,24.80
2022-08-21T06:24:00.878Z,24.90
2022-08-21T06:26:30.235Z,25.60
2022-08-21T06:28:58.478Z,25.70
2022-08-21T06:31:30.112Z,26.00
2022-08-21T06:33:58.630Z,26.40
2022-08-21T06:36:26.988Z,25.80
2022-08-21T06:38:57.929Z,26.40
2022-08-21T06:41:29.041Z,26.50
2022-08-21T06:43:59.232Z,26.80
2022-08-21T06:46:30.938Z,26.90
2022-08-21T06:48:59.608Z,27.10
2022-08-21T06:51:28.340Z,27.30
2022-08-21T06:53:57.120Z,27.40
2022-08-21T06:56:29.069Z,27.80
2022-08-21T06:58:57.270Z,27.60
2022-08-21T07:01:28.440Z,27.90
2022-08-21T07:03:57.355Z,28.20
2022-08-21T07:06:25.895Z,27.80
2022-08-21T07:08:54.208Z,28.20
2022-08-21T07:11:28.754Z,28.50
2022-08-21T07:13:57.558Z,27.70
2022-08-21T07:16:26.288Z,28.20
2022-08-21T07:18:54.397Z,28.10
2022-08-21T07:21:25.920Z,28.50
2022-08-21T07:23:55.093Z,28.60
2022-08-21T07:26:25.014Z,29.00
2022-08-21T07:28:55.102Z,29.40
2022-08-21T07:31:25.688Z,29.70
2022-08-21T07:33:54.331Z,30.00
2022-08-21T07:36:22.833Z,29.80
2022-08-21T07:38:52.718Z,29.70
2022-08-21T07:41:24.397Z,28.70
2022-08-21T07:43:54.662Z,28.60
2022-08-21T07:46:23.205Z,28.80
2022-08-21T07:48:51.404Z,28.50
2022-08-21T07:51:26.097Z,28.90
2022-08-21T07:53:56.736Z,29.10
2022-08-21T07:56:27.211Z,29.60
2022-08-21T07:58:59.632Z,29.80
2022-08-21T08:01:28.354Z,30.40
2022-08-21T08:03:57.290Z,29.70
2022-08-21T08:06:27.072Z,30.00
2022-08-21T08:08:55.589Z,30.40
2022-08-21T08:11:23.912Z,31.00
2022-08-21T08:13:54.416Z,31.30
2022-08-21T08:16:24.099Z,30.50
2022-08-21T08:18:52.628Z,30.10
2022-08-21T08:21:22.008Z,30.40
2022-08-21T08:23:50.374Z,30.80
2022-08-21T08:26:18.770Z,31.00
2022-08-21T08:28:48.825Z,31.10
2022-08-21T08:31:17.481Z,31.10
2022-08-21T08:33:47.392Z,30.10
2022-08-21T08:36:17.234Z,30.20
2022-08-21T08:38:48.380Z,31.00
2022-08-21T08:41:18.319Z,30.70
2022-08-21T08:43:52.957Z,30.10
2022-08-21T08:46:27.070Z,30.40
2022-08-21T08:49:04.013Z,29.70
2022-08-21T08:51:40.276Z,28.90
2022-08-21T08:54:15.011Z,28.40
2022-08-21T08:56:43.398Z,28.00
2022-08-21T08:59:18.089Z,27.90
2022-08-21T09:01:46.661Z,27.90
2022-08-21T09:04:25.121Z,28.20
2022-08-21T09:07:03.487Z,28.70
2022-08-21T09:09:44.493Z,28.70
2022-08-21T09:12:19.540Z,28.80
2022-08-21T09:15:01.417Z,29.30
2022-08-21T09:17:40.079Z,29.40
2022-08-21T09:20:25.777Z,29.40
2022-08-21T09:23:09.535Z,29.90
2022-08-21T09:25:45.112Z,29.00
2022-08-21T09:28:15.701Z,29.70
2022-08-21T09:30:44.788Z,30.00
2022-08-21T09:33:17.064Z,29.60
2022-08-21T09:35:59.615Z,29.20
2022-08-21T09:38:32.714Z,28.40
2022-08-21T09:41:04.630Z,28.40
2022-08-21T09:43:34.079Z,28.40
2022-08-21T09:46:11.212Z,28.30
2022-08-21T09:48:46.285Z,28.30
2022-08-21T09:51:19.472Z,27.80
2022-08-21T09:53:50.965Z,27.80
2022-08-21T09:56:45.644Z,27.20
2022-08-21T09:59:26.576Z,27.20
2022-08-21T10:01:56.214Z,27.80
2022-08-21T10:04:29.696Z,27.90
2022-08-21T10:07:08.916Z,28.10
2022-08-21T10:09:37.487Z,28.00
2022-08-21T10:12:17.122Z,27.60
2022-08-21T10:14:55.480Z,27.60
2022-08-21T10:17:30.360Z,27.40
2022-08-21T10:20:07.146Z,27.50
2022-08-21T10:22:47.378Z,27.50
2022-08-21T10:25:21.075Z,27.60
2022-08-21T10:28:01.060Z,27.50
2022-08-21T10:30:40.719Z,27.50
2022-08-21T10:33:22.241Z,27.70
2022-08-21T10:35:58.438Z,28.00
2022-08-21T10:42:12.777Z,27.70
2022-08-21T10:44:49.690Z,27.50
2022-08-21T10:47:24.330Z,27.50
2022-08-21T10:50:00.400Z,27.50
2022-08-21T10:52:44.459Z,27.30
2022-08-21T10:55:18.820Z,27.10
2022-08-21T10:57:51.956Z,27.50
2022-08-21T11:00:23.132Z,27.90
2022-08-21T11:02:55.686Z,28.10
2022-08-21T11:05:32.026Z,28.50
2022-08-21T11:08:07.086Z,28.50
2022-08-21T11:10:51.316Z,28.90
2022-08-21T11:13:39.540Z,29.10
2022-08-21T11:16:15.451Z,28.80
2022-08-21T11:18:48.393Z,28.60
2022-08-21T11:21:34.269Z,28.50
2022-08-21T11:24:11.739Z,29.10
2022-08-21T11:26:50.161Z,28.80
2022-08-21T11:29:26.670Z,29.20
2022-08-21T11:32:12.749Z,29.60
2022-08-21T11:34:49.370Z,29.80
2022-08-21T11:37:24.170Z,29.80
2022-08-21T11:40:04.530Z,29.20
2022-08-21T11:42:43.274Z,29.00
2022-08-21T11:45:21.578Z,28.70
2022-08-21T11:48:02.522Z,28.50
2022-08-21T11:50:35.067Z,28.60
2022-08-21T11:53:11.338Z,28.40
2022-08-21T11:55:46.038Z,28.40
2022-08-21T11:58:22.566Z,28.20
2022-08-21T12:00:54.105Z,28.40
2022-08-21T12:03:29.846Z,28.30
2022-08-21T12:06:02.149Z,28.10
2022-08-21T12:08:33.052Z,27.80
2022-08-21T12:11:05.896Z,27.90
2022-08-21T12:13:40.233Z,27.90
2022-08-21T12:16:12.796Z,28.30
2022-08-21T12:18:41.805Z,28.60
2022-08-21T12:21:23.697Z,28.20
2022-08-21T12:24:03.286Z,27.70
2022-08-21T12:26:33.437Z,27.30
2022-08-21T12:29:18.812Z,27.20
2022-08-21T12:31:56.470Z,26.90
2022-08-21T12:34:27.521Z,26.70
2022-08-21T12:36:59.145Z,26.80
2022-08-21T12:39:32.932Z,27.00
2022-08-21T12:42:06.586Z,27.20
2022-08-21T12:44:45.129Z,27.30
2022-08-21T12:47:18.953Z,27.40
2022-08-21T12:49:56.333Z,27.60
2022-08-21T12:52:29.748Z,27.60
2022-08-21T12:54:57.919Z,27.60
2022-08-21T12:57:29.765Z,27.70
2022-08-21T13:00:00.823Z,27.80
2022-08-21T13:02:32.323Z,27.90
2022-08-21T13:05:03.900Z,27.90
2022-08-21T13:07:35.156Z,28.10
2022-08-21T13:10:08.431Z,28.10
2022-08-21T13:12:38.330Z,27.80
2022-08-21T13:15:10.414Z,27.80
2022-08-21T13:17:43.670Z,27.90
2022-08-21T13:20:21.056Z,27.80
2022-08-21T13:22:49.256Z,27.90
2022-08-21T13:25:21.489Z,27.90
2022-08-21T13:28:01.874Z,27.70
2022-08-21T13:30:32.560Z,27.60
2022-08-21T13:33:03.144Z,27.60
2022-08-21T13:35:49.642Z,27.60
2022-08-21T13:38:18.867Z,27.70
2022-08-21T13:40:51.050Z,27.60
2022-08-21T13:43:22.939Z,27.60
2022-08-21T13:45:54.724Z,27.40
2022-08-21T13:48:25.738Z,27.40
2022-08-21T13:50:54.820Z,27.10
2022-08-21T13:53:25.871Z,27.30
2022-08-21T13:55:57.411Z,27.30
2022-08-21T13:58:29.807Z,27.40
2022-08-21T14:01:01.157Z,27.40
2022-08-21T14:03:37.949Z,27.40
2022-08-21T14:06:14.401Z,27.30
2022-08-21T14:08:44.051Z,27.30
2022-08-21T14:11:14.558Z,27.10
2022-08-21T14:13:46.097Z,27.20
2022-08-21T14:16:20.616Z,27.20
2022-08-21T14:18:52.084Z,27.20
2022-08-21T14:21:33.370Z,27.10
2022-08-21T14:24:06.238Z,27.20
2022-08-21T14:26:37.480Z,27.10
2022-08-21T14:29:12.298Z,27.00
2022-08-21T14:31:43.134Z,27.00
2022-08-21T14:34:19.755Z,27.10
2022-08-21T14:36:49.587Z,26.90
2022-08-21T14:39:18.291Z,26.90
2022-08-21T14:41:49.382Z,26.90
2022-08-21T14:44:19.776Z,26.90
2022-08-21T14:46:56.255Z,26.80
2022-08-21T14:49:28.792Z,26.70
2022-08-21T14:51:59.135Z,26.80
2022-08-21T14:54:31.134Z,26.80
2022-08-21T14:57:01.336Z,26.70
2022-08-21T14:59:29.679Z,26.80
2022-08-21T15:01:59.154Z,26.80
2022-08-21T15:04:27.502Z,26.80
2022-08-21T15:06:55.594Z,26.80
2022-08-21T15:09:24.826Z,26.80
2022-08-21T15:11:54.224Z,26.80
2022-08-21T15:14:24.374Z,26.70
2022-08-21T15:16:53.207Z,26.70
2022-08-21T15:19:22.674Z,26.60
2022-08-21T15:21:51.218Z,26.50
2022-08-21T15:24:19.409Z,26.40
2022-08-21T15:26:49.360Z,26.30
2022-08-21T15:29:22.486Z,26.20
2022-08-21T15:31:56.779Z,26.10
2022-08-21T15:34:28.268Z,26.00
2022-08-21T15:36:57.224Z,25.90
2022-08-21T15:39:31.215Z,25.80
2022-08-21T15:42:02.054Z,25.70
2022-08-21T15:44:36.583Z,25.80
2022-08-21T15:47:05.121Z,25.60
2022-08-21T15:49:34.564Z,25.60
2022-08-21T15:52:02.939Z,25.60
2022-08-21T15:54:31.113Z,25.60
2022-08-21T15:56:59.735Z,25.60
2022-08-21T15:59:28.088Z,25.60
2022-08-21T16:01:56.222Z,25.50
2022-08-21T16:04:26.972Z,25.50
2022-08-21T16:07:01.737Z,25.40
2022-08-21T16:09:32.194Z,25.40
2022-08-21T16:12:01.803Z,25.40
2022-08-21T16:14:31.685Z,25.30
2022-08-21T16:17:00.409Z,25.20
2022-08-21T16:19:30.603Z,25.10
2022-08-21T16:22:00.435Z,25.10
2022-08-21T16:24:28.512Z,24.90
2022-08-21T16:26:57.927Z,24.80
2022-08-21T16:29:27.430Z,24.80
2022-08-21T16:31:56.111Z,24.70
2022-08-21T16:34:24.241Z,24.60
2022-08-21T16:36:52.392Z,24.60
2022-08-21T16:39:21.959Z,24.60
2022-08-21T16:41:50.932Z,24.50
2022-08-21T16:44:19.885Z,24.50
2022-08-21T16:46:48.066Z,24.40
2022-08-21T16:49:16.444Z,24.30
2022-08-21T16:51:44.547Z,24.30
2022-08-21T16:54:13.993Z,24.30
2022-08-21T16:56:47.427Z,24.20
2022-08-21T16:59:17.376Z,24.10
2022-08-21T17:01:46.548Z,24.10
2022-08-21T17:04:14.676Z,24.00
2022-08-21T17:06:44.325Z,23.90
2022-08-21T17:09:12.656Z,23.80
2022-08-21T17:11:44.483Z,23.80
2022-08-21T17:14:15.412Z,23.70
2022-08-21T17:16:47.669Z,23.60
2022-08-21T17:19:16.506Z,23.40
2022-08-21T17:21:44.759Z,23.50
2022-08-21T17:24:15.615Z,23.40
2022-08-21T17:26:46.085Z,23.30
2022-08-21T17:29:16.109Z,23.20
2022-08-21T17:31:45.507Z,22.90
2022-08-21T17:34:15.794Z,23.00
2022-08-21T17:36:43.949Z,22.90
2022-08-21T17:39:13.026Z,22.70
2022-08-21T17:41:54.403Z,22.70
2022-08-21T17:44:26.139Z,22.60
2022-08-21T17:46:54.709Z,22.50
2022-08-21T17:49:22.883Z,22.30
2022-08-21T17:51:51.133Z,22.20
2022-08-21T17:54:19.301Z,22.20
2022-08-21T17:56:47.469Z,22.10
2022-08-21T17:59:17.325Z,22.00
2022-08-21T18:01:47.350Z,21.90
2022-08-21T18:04:16.635Z,21.80
2022-08-21T18:06:45.513Z,21.60
2022-08-21T18:09:14.332Z,21.60
2022-08-21T18:11:44.191Z,21.50
2022-08-21T18:14:13.309Z,21.50
2022-08-21T18:16:42.932Z,21.40
2022-08-21T18:19:16.079Z,21.30
2022-08-21T18:21:44.632Z,21.20
2022-08-21T18:24:12.905Z,21.10
2022-08-21T18:26:42.093Z,21.10
2022-08-21T18:29:13.529Z,21.00
2022-08-21T18:31:46.028Z,21.00
2022-08-21T18:34:28.006Z,20.90
2022-08-21T18:36:57.065Z,20.80
2022-08-21T18:39:36.254Z,20.80
2022-08-21T18:42:09.274Z,20.70
2022-08-21T18:44:37.850Z,20.70
2022-08-21T18:47:11.569Z,20.60
2022-08-21T18:49:41.095Z,20.50
2022-08-21T18:52:09.926Z,20.50
2022-08-21T18:54:41.276Z,20.60
2022-08-21T18:57:11.827Z,20.40
2022-08-21T18:59:42.216Z,20.40
2022-08-21T19:02:12.521Z,20.30
2022-08-21T19:07:28.763Z,20.20
2022-08-21T19:10:24.340Z,20.20
2022-08-21T19:12:46.190Z,20.20
2022-08-21T19:15:18.367Z,20.00
2022-08-21T19:17:50.760Z,20.00
2022-08-21T19:20:25.753Z,20.00
2022-08-21T19:23:03.249Z,19.90
2022-08-21T19:25:33.268Z,19.90
2022-08-21T19:28:04.109Z,19.80
2022-08-21T19:30:45.835Z,19.60
2022-08-21T19:36:11.601Z,19.70
2022-08-21T19:38:41.100Z,19.70
2022-08-21T19:41:12.389Z,19.60
2022-08-21T19:43:44.559Z,19.60
2022-08-21T19:46:14.268Z,19.50
2022-08-21T19:48:46.808Z,19.50
2022-08-21T19:51:15.153Z,19.50
2022-08-21T19:53:43.349Z,19.40
2022-08-21T19:56:15.943Z,19.30
2022-08-21T19:58:47.158Z,19.40
2022-08-21T20:01:20.256Z,19.30
2022-08-21T20:03:54.698Z,19.20
2022-08-21T20:06:24.454Z,19.20
2022-08-21T20:08:53.144Z,19.20
2022-08-21T20:11:26.009Z,19.00
2022-08-21T20:13:55.041Z,19.20
2022-08-21T20:16:23.531Z,19.10
2022-08-21T20:18:53.009Z,19.00
2022-08-21T20:21:21.320Z,19.00
2022-08-21T20:23:49.457Z,18.90
2022-08-21T20:26:17.844Z,18.90
2022-08-21T20:28:50.459Z,18.90
2022-08-21T20:31:21.543Z,18.70
2022-08-21T20:33:50.698Z,18.70
2022-08-21T20:36:21.402Z,18.80
2022-08-21T20:38:51.840Z,18.80
2022-08-21T20:41:30.998Z,18.80
2022-08-21T20:44:01.041Z,18.70
2022-08-21T20:46:31.936Z,18.70
2022-08-21T20:49:02.104Z,18.60
2022-08-21T20:51:36.746Z,18.60
2022-08-21T20:54:14.050Z,18.50
2022-08-21T20:56:49.314Z,18.60
2022-08-21T20:59:26.054Z,18.50
2022-08-21T21:01:59.679Z,18.50
2022-08-21T21:04:41.478Z,18.40
2022-08-21T21:07:19.367Z,18.40
2022-08-21T21:09:50.292Z,18.50
2022-08-21T21:12:27.914Z,18.40
2022-08-21T21:14:59.811Z,18.30
2022-08-21T21:17:33.528Z,18.30
2022-08-21T21:20:10.085Z,18.30
2022-08-21T21:22:46.400Z,18.30
2022-08-21T21:25:19.688Z,18.30
2022-08-21T21:27:54.693Z,18.30
2022-08-21T21:30:26.001Z,18.20
2022-08-21T21:32:54.396Z,18.20
2022-08-21T21:35:32.639Z,18.20
2022-08-21T21:38:22.856Z,18.20
2022-08-21T21:41:03.946Z,18.10
2022-08-21T21:44:02.284Z,18.10
2022-08-21T21:46:43.770Z,18.10
2022-08-21T21:49:34.157Z,18.00
2022-08-21T21:52:12.213Z,18.00
2022-08-21T21:55:13.153Z,18.00
2022-08-21T21:58:03.560Z,17.90
2022-08-21T22:00:35.054Z,17.90
2022-08-21T22:03:13.257Z,17.90
2022-08-21T22:05:56.209Z,17.90
2022-08-21T22:08:36.904Z,17.80
